sensor_id;sensor_type;location;lat;lon;timestamp;P1;durP1;ratioP1;P2;durP2;ratioP2
7683;SDS011;3884;48.616;12.872;2023-06-01T00:00:55;7.70;;;5.90;;
7683;SDS011;3884;48.616;12.872;2023-06-01T00:03:23;6.73;;;5.90;;
7683;SDS011;3884;48.616;12.872;2023-06-01T00:05:51;7.07;;;5.40;;
7683;SDS011;3884;48.616;12.872;2023-06-01T00:08:18;7.90;;;6.10;;
7683;SDS011;3884;48.616;12.872;2023-06-01T00:10:47;7.53;;;5.80;;
7683;SDS011;3884;48.616;12.872;2023-06-01T00:13:14;6.50;;;5.73;;
7683;SDS011;3884;48.616;12.872;2023-06-01T00:15:41;6.60;;;5.27;;
7683;SDS011;3884;48.616;12.872;2023-06-01T00:18:08;8.10;;;5.77;;
7683;SDS011;3884;48.616;12.872;2023-06-01T00:20:37;9.50;;;6.23;;
7683;SDS011;3884;48.616;12.872;2023-06-01T00:23:05;6.97;;;5.90;;
7683;SDS011;3884;48.616;12.872;2023-06-01T00:25:34;8.17;;;5.87;;
7683;SDS011;3884;48.616;12.872;2023-06-01T00:28:02;6.90;;;6.00;;
7683;SDS011;3884;48.616;12.872;2023-06-01T00:30:29;7.13;;;6.03;;
7683;SDS011;3884;48.616;12.872;2023-06-01T00:32:56;7.83;;;5.87;;
7683;SDS011;3884;48.616;12.872;2023-06-01T00:35:23;8.70;;;6.00;;
7683;SDS011;3884;48.616;12.872;2023-06-01T00:37:50;8.33;;;6.23;;
7683;SDS011;3884;48.616;12.872;2023-06-01T00:40:17;7.57;;;5.80;;
7683;SDS011;3884;48.616;12.872;2023-06-01T00:42:44;6.27;;;5.43;;
7683;SDS011;3884;48.616;12.872;2023-06-01T00:45:13;6.80;;;5.80;;
7683;SDS011;3884;48.616;12.872;2023-06-01T00:47:41;6.80;;;5.47;;
7683;SDS011;3884;48.616;12.872;2023-06-01T00:50:10;7.07;;;5.57;;
7683;SDS011;3884;48.616;12.872;2023-06-01T00:52:37;8.17;;;5.73;;
7683;SDS011;3884;48.616;12.872;2023-06-01T00:55:05;6.33;;;5.70;;
7683;SDS011;3884;48.616;12.872;2023-06-01T00:57:34;6.43;;;5.60;;
7683;SDS011;3884;48.616;12.872;2023-06-01T01:00:03;7.10;;;6.40;;
7683;SDS011;3884;48.616;12.872;2023-06-01T01:02:36;6.27;;;5.57;;
7683;SDS011;3884;48.616;12.872;2023-06-01T01:05:04;8.93;;;6.13;;
7683;SDS011;3884;48.616;12.872;2023-06-01T01:07:36;9.30;;;6.13;;
7683;SDS011;3884;48.616;12.872;2023-06-01T01:10:16;9.00;;;5.83;;
7683;SDS011;3884;48.616;12.872;2023-06-01T01:12:50;6.80;;;5.73;;
7683;SDS011;3884;48.616;12.872;2023-06-01T01:15:21;7.17;;;5.67;;
7683;SDS011;3884;48.616;12.872;2023-06-01T01:17:57;7.17;;;5.40;;
7683;SDS011;3884;48.616;12.872;2023-06-01T01:20:28;8.63;;;5.40;;
7683;SDS011;3884;48.616;12.872;2023-06-01T01:23:02;6.13;;;5.53;;
7683;SDS011;3884;48.616;12.872;2023-06-01T01:25:56;8.00;;;5.43;;
7683;SDS011;3884;48.616;12.872;2023-06-01T01:28:37;6.17;;;5.40;;
7683;SDS011;3884;48.616;12.872;2023-06-01T01:31:08;6.03;;;5.40;;
7683;SDS011;3884;48.616;12.872;2023-06-01T01:33:37;8.27;;;5.60;;
7683;SDS011;3884;48.616;12.872;2023-06-01T01:36:05;7.77;;;5.47;;
7683;SDS011;3884;48.616;12.872;2023-06-01T01:38:35;6.80;;;5.17;;
7683;SDS011;3884;48.616;12.872;2023-06-01T01:41:02;7.53;;;5.60;;
7683;SDS011;3884;48.616;12.872;2023-06-01T01:43:30;6.13;;;5.50;;
7683;SDS011;3884;48.616;12.872;2023-06-01T01:46:01;6.83;;;5.03;;
7683;SDS011;3884;48.616;12.872;2023-06-01T01:48:35;7.07;;;5.10;;
7683;SDS011;3884;48.616;12.872;2023-06-01T01:51:10;8.20;;;5.47;;
7683;SDS011;3884;48.616;12.872;2023-06-01T01:53:42;8.40;;;5.00;;
7683;SDS011;3884;48.616;12.872;2023-06-01T01:56:11;8.20;;;5.50;;
7683;SDS011;3884;48.616;12.872;2023-06-01T01:58:40;15.00;;;5.97;;
7683;SDS011;3884;48.616;12.872;2023-06-01T02:01:11;8.60;;;5.60;;
7683;SDS011;3884;48.616;12.872;2023-06-01T02:03:38;9.23;;;5.60;;
7683;SDS011;3884;48.616;12.872;2023-06-01T02:06:05;8.70;;;5.87;;
7683;SDS011;3884;48.616;12.872;2023-06-01T02:08:33;6.63;;;5.47;;
7683;SDS011;3884;48.616;12.872;2023-06-01T02:11:00;7.30;;;5.30;;
7683;SDS011;3884;48.616;12.872;2023-06-01T02:13:27;7.17;;;5.23;;
7683;SDS011;3884;48.616;12.872;2023-06-01T02:15:54;6.57;;;5.33;;
7683;SDS011;3884;48.616;12.872;2023-06-01T02:18:22;7.57;;;5.43;;
7683;SDS011;3884;48.616;12.872;2023-06-01T02:20:50;8.67;;;6.23;;
7683;SDS011;3884;48.616;12.872;2023-06-01T02:23:17;6.87;;;5.70;;
7683;SDS011;3884;48.616;12.872;2023-06-01T02:25:44;7.93;;;6.20;;
7683;SDS011;3884;48.616;12.872;2023-06-01T02:28:11;7.33;;;5.77;;
7683;SDS011;3884;48.616;12.872;2023-06-01T02:30:38;6.37;;;5.30;;
7683;SDS011;3884;48.616;12.872;2023-06-01T02:33:06;8.43;;;5.30;;
7683;SDS011;3884;48.616;12.872;2023-06-01T02:35:35;5.10;;;4.60;;
7683;SDS011;3884;48.616;12.872;2023-06-01T02:38:02;6.20;;;5.13;;
7683;SDS011;3884;48.616;12.872;2023-06-01T02:40:30;7.40;;;5.17;;
7683;SDS011;3884;48.616;12.872;2023-06-01T02:42:57;7.10;;;5.17;;
7683;SDS011;3884;48.616;12.872;2023-06-01T02:45:24;5.70;;;5.07;;
7683;SDS011;3884;48.616;12.872;2023-06-01T02:47:51;7.97;;;5.33;;
7683;SDS011;3884;48.616;12.872;2023-06-01T02:50:18;6.53;;;5.40;;
7683;SDS011;3884;48.616;12.872;2023-06-01T02:52:50;6.87;;;4.87;;
7683;SDS011;3884;48.616;12.872;2023-06-01T02:55:17;5.73;;;4.70;;
7683;SDS011;3884;48.616;12.872;2023-06-01T02:58:11;6.40;;;4.43;;
7683;SDS011;3884;48.616;12.872;2023-06-01T03:00:52;7.67;;;5.07;;
7683;SDS011;3884;48.616;12.872;2023-06-01T03:03:20;7.03;;;5.23;;
7683;SDS011;3884;48.616;12.872;2023-06-01T03:05:47;6.70;;;4.73;;
7683;SDS011;3884;48.616;12.872;2023-06-01T03:08:32;5.80;;;5.20;;
7683;SDS011;3884;48.616;12.872;2023-06-01T03:11:01;6.20;;;5.27;;
7683;SDS011;3884;48.616;12.872;2023-06-01T03:13:32;5.47;;;4.97;;
7683;SDS011;3884;48.616;12.872;2023-06-01T03:15:59;5.80;;;5.20;;
7683;SDS011;3884;48.616;12.872;2023-06-01T03:18:26;5.73;;;4.47;;
7683;SDS011;3884;48.616;12.872;2023-06-01T03:20:53;5.30;;;4.80;;
7683;SDS011;3884;48.616;12.872;2023-06-01T03:23:21;4.60;;;4.13;;
7683;SDS011;3884;48.616;12.872;2023-06-01T03:25:50;6.53;;;4.77;;
7683;SDS011;3884;48.616;12.872;2023-06-01T03:28:17;6.77;;;4.90;;
7683;SDS011;3884;48.616;12.872;2023-06-01T03:30:44;6.40;;;4.90;;
7683;SDS011;3884;48.616;12.872;2023-06-01T03:33:12;6.73;;;5.23;;
7683;SDS011;3884;48.616;12.872;2023-06-01T03:35:38;6.17;;;4.83;;
7683;SDS011;3884;48.616;12.872;2023-06-01T03:38:05;6.10;;;4.93;;
7683;SDS011;3884;48.616;12.872;2023-06-01T03:40:32;5.87;;;4.97;;
7683;SDS011;3884;48.616;12.872;2023-06-01T03:43:01;5.97;;;4.73;;
7683;SDS011;3884;48.616;12.872;2023-06-01T03:45:28;5.20;;;4.70;;
7683;SDS011;3884;48.616;12.872;2023-06-01T03:47:56;6.27;;;5.03;;
7683;SDS011;3884;48.616;12.872;2023-06-01T03:50:24;6.07;;;5.20;;
7683;SDS011;3884;48.616;12.872;2023-06-01T03:52:53;7.00;;;5.27;;
7683;SDS011;3884;48.616;12.872;2023-06-01T03:55:20;6.73;;;5.10;;
7683;SDS011;3884;48.616;12.872;2023-06-01T03:58:11;5.77;;;4.83;;
7683;SDS011;3884;48.616;12.872;2023-06-01T04:00:39;6.33;;;5.73;;
7683;SDS011;3884;48.616;12.872;2023-06-01T04:03:12;6.40;;;5.80;;
7683;SDS011;3884;48.616;12.872;2023-06-01T04:05:40;8.03;;;5.90;;
7683;SDS011;3884;48.616;12.872;2023-06-01T04:08:14;8.30;;;5.73;;
7683;SDS011;3884;48.616;12.872;2023-06-01T04:10:41;6.73;;;5.40;;
7683;SDS011;3884;48.616;12.872;2023-06-01T04:13:10;7.97;;;4.83;;
7683;SDS011;3884;48.616;12.872;2023-06-01T04:15:37;7.10;;;5.37;;
7683;SDS011;3884;48.616;12.872;2023-06-01T04:18:04;8.10;;;5.60;;
7683;SDS011;3884;48.616;12.872;2023-06-01T04:20:46;5.83;;;5.23;;
7683;SDS011;3884;48.616;12.872;2023-06-01T04:23:14;6.67;;;5.37;;
7683;SDS011;3884;48.616;12.872;2023-06-01T04:25:41;5.83;;;5.10;;
7683;SDS011;3884;48.616;12.872;2023-06-01T04:28:15;8.33;;;5.23;;
7683;SDS011;3884;48.616;12.872;2023-06-01T04:30:42;5.73;;;4.83;;
7683;SDS011;3884;48.616;12.872;2023-06-01T04:33:12;6.87;;;5.27;;
7683;SDS011;3884;48.616;12.872;2023-06-01T04:35:41;7.93;;;5.40;;
7683;SDS011;3884;48.616;12.872;2023-06-01T04:38:09;6.10;;;5.20;;
7683;SDS011;3884;48.616;12.872;2023-06-01T04:40:39;8.20;;;6.37;;
7683;SDS011;3884;48.616;12.872;2023-06-01T04:43:07;7.00;;;6.07;;
7683;SDS011;3884;48.616;12.872;2023-06-01T04:45:35;8.73;;;6.83;;
7683;SDS011;3884;48.616;12.872;2023-06-01T04:48:03;8.17;;;6.37;;
7683;SDS011;3884;48.616;12.872;2023-06-01T04:50:43;6.97;;;6.00;;
7683;SDS011;3884;48.616;12.872;2023-06-01T04:53:10;6.23;;;5.37;;
7683;SDS011;3884;48.616;12.872;2023-06-01T04:55:38;8.37;;;6.33;;
7683;SDS011;3884;48.616;12.872;2023-06-01T04:58:05;7.20;;;5.93;;
7683;SDS011;3884;48.616;12.872;2023-06-01T05:00:32;8.53;;;6.10;;
7683;SDS011;3884;48.616;12.872;2023-06-01T05:03:00;8.57;;;6.23;;
7683;SDS011;3884;48.616;12.872;2023-06-01T05:05:28;7.53;;;6.30;;
7683;SDS011;3884;48.616;12.872;2023-06-01T05:07:55;8.10;;;6.13;;
7683;SDS011;3884;48.616;12.872;2023-06-01T05:10:22;7.93;;;5.90;;
7683;SDS011;3884;48.616;12.872;2023-06-01T05:12:49;8.47;;;5.90;;
7683;SDS011;3884;48.616;12.872;2023-06-01T05:15:17;13.40;;;6.17;;
7683;SDS011;3884;48.616;12.872;2023-06-01T05:17:45;7.63;;;6.07;;
7683;SDS011;3884;48.616;12.872;2023-06-01T05:20:17;8.20;;;6.00;;
7683;SDS011;3884;48.616;12.872;2023-06-01T05:22:55;6.83;;;5.53;;
7683;SDS011;3884;48.616;12.872;2023-06-01T05:25:28;7.23;;;5.27;;
7683;SDS011;3884;48.616;12.872;2023-06-01T05:27:56;7.20;;;5.23;;
7683;SDS011;3884;48.616;12.872;2023-06-01T05:30:24;7.03;;;5.53;;
7683;SDS011;3884;48.616;12.872;2023-06-01T05:32:55;7.73;;;5.20;;
7683;SDS011;3884;48.616;12.872;2023-06-01T05:35:36;9.10;;;5.80;;
7683;SDS011;3884;48.616;12.872;2023-06-01T05:38:12;7.23;;;4.80;;
7683;SDS011;3884;48.616;12.872;2023-06-01T05:40:39;8.07;;;5.37;;
7683;SDS011;3884;48.616;12.872;2023-06-01T05:43:06;8.47;;;5.07;;
7683;SDS011;3884;48.616;12.872;2023-06-01T05:45:34;8.47;;;5.43;;
7683;SDS011;3884;48.616;12.872;2023-06-01T05:48:01;7.50;;;5.63;;
7683;SDS011;3884;48.616;12.872;2023-06-01T05:50:32;6.90;;;5.20;;
7683;SDS011;3884;48.616;12.872;2023-06-01T05:52:59;8.27;;;5.73;;
7683;SDS011;3884;48.616;12.872;2023-06-01T05:55:30;7.70;;;5.20;;
7683;SDS011;3884;48.616;12.872;2023-06-01T05:57:57;6.60;;;5.20;;
7683;SDS011;3884;48.616;12.872;2023-06-01T06:00:32;7.20;;;5.17;;
7683;SDS011;3884;48.616;12.872;2023-06-01T06:03:00;6.40;;;4.80;;
7683;SDS011;3884;48.616;12.872;2023-06-01T06:05:29;5.27;;;4.77;;
7683;SDS011;3884;48.616;12.872;2023-06-01T06:10:52;7.63;;;4.53;;
7683;SDS011;3884;48.616;12.872;2023-06-01T06:13:25;5.73;;;4.40;;
7683;SDS011;3884;48.616;12.872;2023-06-01T06:15:54;5.30;;;4.30;;
7683;SDS011;3884;48.616;12.872;2023-06-01T06:18:23;6.53;;;4.73;;
7683;SDS011;3884;48.616;12.872;2023-06-01T06:20:50;5.00;;;4.20;;
7683;SDS011;3884;48.616;12.872;2023-06-01T06:23:16;4.50;;;3.83;;
7683;SDS011;3884;48.616;12.872;2023-06-01T06:25:45;6.03;;;4.53;;
7683;SDS011;3884;48.616;12.872;2023-06-01T06:28:16;4.93;;;4.13;;
7683;SDS011;3884;48.616;12.872;2023-06-01T06:30:46;5.83;;;4.20;;
7683;SDS011;3884;48.616;12.872;2023-06-01T06:33:13;4.90;;;4.37;;
7683;SDS011;3884;48.616;12.872;2023-06-01T06:35:40;5.57;;;4.30;;
7683;SDS011;3884;48.616;12.872;2023-06-01T06:38:07;8.33;;;4.57;;
7683;SDS011;3884;48.616;12.872;2023-06-01T06:40:33;6.20;;;4.53;;
7683;SDS011;3884;48.616;12.872;2023-06-01T06:43:02;6.37;;;4.07;;
7683;SDS011;3884;48.616;12.872;2023-06-01T06:45:31;7.77;;;4.03;;
7683;SDS011;3884;48.616;12.872;2023-06-01T06:47:58;7.77;;;4.30;;
7683;SDS011;3884;48.616;12.872;2023-06-01T06:50:25;7.23;;;4.10;;
7683;SDS011;3884;48.616;12.872;2023-06-01T06:52:56;5.03;;;4.13;;
7683;SDS011;3884;48.616;12.872;2023-06-01T06:55:24;5.53;;;3.87;;
7683;SDS011;3884;48.616;12.872;2023-06-01T06:57:54;7.23;;;4.10;;
7683;SDS011;3884;48.616;12.872;2023-06-01T07:00:24;7.43;;;3.83;;
7683;SDS011;3884;48.616;12.872;2023-06-01T07:03:12;5.47;;;4.10;;
7683;SDS011;3884;48.616;12.872;2023-06-01T07:05:40;5.63;;;3.70;;
7683;SDS011;3884;48.616;12.872;2023-06-01T07:08:11;7.73;;;4.20;;
7683;SDS011;3884;48.616;12.872;2023-06-01T07:10:38;6.03;;;3.87;;
7683;SDS011;3884;48.616;12.872;2023-06-01T07:13:06;4.47;;;3.83;;
7683;SDS011;3884;48.616;12.872;2023-06-01T07:15:34;5.73;;;4.30;;
7683;SDS011;3884;48.616;12.872;2023-06-01T07:18:01;5.73;;;3.73;;
7683;SDS011;3884;48.616;12.872;2023-06-01T07:20:33;7.17;;;4.13;;
7683;SDS011;3884;48.616;12.872;2023-06-01T07:23:00;9.23;;;4.20;;
7683;SDS011;3884;48.616;12.872;2023-06-01T07:25:26;6.10;;;4.13;;
7683;SDS011;3884;48.616;12.872;2023-06-01T07:27:53;4.43;;;3.93;;
7683;SDS011;3884;48.616;12.872;2023-06-01T07:30:21;5.10;;;4.20;;
7683;SDS011;3884;48.616;12.872;2023-06-01T07:32:48;7.27;;;4.23;;
7683;SDS011;3884;48.616;12.872;2023-06-01T07:35:15;8.17;;;3.70;;
7683;SDS011;3884;48.616;12.872;2023-06-01T07:37:44;8.23;;;3.60;;
7683;SDS011;3884;48.616;12.872;2023-06-01T07:40:11;4.33;;;3.37;;
7683;SDS011;3884;48.616;12.872;2023-06-01T07:42:41;4.43;;;3.47;;
7683;SDS011;3884;48.616;12.872;2023-06-01T07:45:29;6.77;;;3.17;;
7683;SDS011;3884;48.616;12.872;2023-06-01T07:47:56;4.20;;;3.47;;
7683;SDS011;3884;48.616;12.872;2023-06-01T07:50:26;6.47;;;3.60;;
7683;SDS011;3884;48.616;12.872;2023-06-01T07:52:57;4.70;;;3.30;;
7683;SDS011;3884;48.616;12.872;2023-06-01T07:55:24;6.50;;;4.20;;
7683;SDS011;3884;48.616;12.872;2023-06-01T07:57:51;9.33;;;3.90;;
7683;SDS011;3884;48.616;12.872;2023-06-01T08:00:18;8.33;;;4.07;;
7683;SDS011;3884;48.616;12.872;2023-06-01T08:02:47;5.03;;;3.77;;
7683;SDS011;3884;48.616;12.872;2023-06-01T08:05:14;6.70;;;3.70;;
7683;SDS011;3884;48.616;12.872;2023-06-01T08:07:43;6.27;;;4.00;;
7683;SDS011;3884;48.616;12.872;2023-06-01T08:10:12;6.33;;;4.30;;
7683;SDS011;3884;48.616;12.872;2023-06-01T08:12:39;8.70;;;3.87;;
7683;SDS011;3884;48.616;12.872;2023-06-01T08:15:08;6.07;;;4.10;;
7683;SDS011;3884;48.616;12.872;2023-06-01T08:17:37;6.60;;;3.83;;
7683;SDS011;3884;48.616;12.872;2023-06-01T08:20:05;9.43;;;4.50;;
7683;SDS011;3884;48.616;12.872;2023-06-01T08:22:36;7.87;;;3.93;;
7683;SDS011;3884;48.616;12.872;2023-06-01T08:25:03;6.57;;;4.23;;
7683;SDS011;3884;48.616;12.872;2023-06-01T08:27:32;8.20;;;4.37;;
7683;SDS011;3884;48.616;12.872;2023-06-01T08:29:58;5.70;;;3.77;;
7683;SDS011;3884;48.616;12.872;2023-06-01T08:32:25;5.27;;;4.30;;
7683;SDS011;3884;48.616;12.872;2023-06-01T08:34:52;4.77;;;3.93;;
7683;SDS011;3884;48.616;12.872;2023-06-01T08:37:19;6.33;;;4.30;;
7683;SDS011;3884;48.616;12.872;2023-06-01T08:39:46;5.27;;;4.10;;
7683;SDS011;3884;48.616;12.872;2023-06-01T08:42:13;7.00;;;4.67;;
7683;SDS011;3884;48.616;12.872;2023-06-01T08:44:47;5.07;;;4.27;;
7683;SDS011;3884;48.616;12.872;2023-06-01T08:47:19;7.67;;;4.40;;
7683;SDS011;3884;48.616;12.872;2023-06-01T08:49:48;6.87;;;4.40;;
7683;SDS011;3884;48.616;12.872;2023-06-01T08:52:18;5.43;;;4.43;;
7683;SDS011;3884;48.616;12.872;2023-06-01T08:54:46;6.93;;;4.37;;
7683;SDS011;3884;48.616;12.872;2023-06-01T08:57:13;6.17;;;4.17;;
7683;SDS011;3884;48.616;12.872;2023-06-01T08:59:41;5.77;;;4.60;;
7683;SDS011;3884;48.616;12.872;2023-06-01T09:02:10;6.73;;;4.07;;
7683;SDS011;3884;48.616;12.872;2023-06-01T09:04:37;4.47;;;4.00;;
7683;SDS011;3884;48.616;12.872;2023-06-01T09:07:09;6.43;;;4.07;;
7683;SDS011;3884;48.616;12.872;2023-06-01T09:09:36;4.60;;;4.00;;
7683;SDS011;3884;48.616;12.872;2023-06-01T09:12:16;7.13;;;3.97;;
7683;SDS011;3884;48.616;12.872;2023-06-01T09:14:44;7.83;;;4.67;;
7683;SDS011;3884;48.616;12.872;2023-06-01T09:17:13;6.40;;;4.60;;
7683;SDS011;3884;48.616;12.872;2023-06-01T09:19:42;4.97;;;4.10;;
7683;SDS011;3884;48.616;12.872;2023-06-01T09:22:10;6.90;;;4.20;;
7683;SDS011;3884;48.616;12.872;2023-06-01T09:24:37;6.33;;;4.30;;
7683;SDS011;3884;48.616;12.872;2023-06-01T09:27:06;7.17;;;4.30;;
7683;SDS011;3884;48.616;12.872;2023-06-01T09:29:33;5.73;;;4.63;;
7683;SDS011;3884;48.616;12.872;2023-06-01T09:32:00;6.50;;;4.50;;
7683;SDS011;3884;48.616;12.872;2023-06-01T09:34:28;6.43;;;4.17;;
7683;SDS011;3884;48.616;12.872;2023-06-01T09:36:55;6.87;;;4.43;;
7683;SDS011;3884;48.616;12.872;2023-06-01T09:39:23;7.23;;;4.70;;
7683;SDS011;3884;48.616;12.872;2023-06-01T09:41:51;6.20;;;4.80;;
7683;SDS011;3884;48.616;12.872;2023-06-01T09:44:24;6.43;;;4.60;;
7683;SDS011;3884;48.616;12.872;2023-06-01T09:46:52;4.67;;;4.17;;
7683;SDS011;3884;48.616;12.872;2023-06-01T09:49:21;5.87;;;4.70;;
7683;SDS011;3884;48.616;12.872;2023-06-01T09:51:51;9.77;;;4.80;;
7683;SDS011;3884;48.616;12.872;2023-06-01T09:54:26;6.03;;;4.70;;
7683;SDS011;3884;48.616;12.872;2023-06-01T09:56:54;7.60;;;6.57;;
7683;SDS011;3884;48.616;12.872;2023-06-01T09:59:22;11.37;;;8.43;;
7683;SDS011;3884;48.616;12.872;2023-06-01T10:01:49;5.77;;;4.47;;
7683;SDS011;3884;48.616;12.872;2023-06-01T10:04:19;6.37;;;4.50;;
7683;SDS011;3884;48.616;12.872;2023-06-01T10:06:48;7.20;;;4.67;;
7683;SDS011;3884;48.616;12.872;2023-06-01T10:09:19;7.03;;;4.17;;
7683;SDS011;3884;48.616;12.872;2023-06-01T10:11:47;6.97;;;5.20;;
7683;SDS011;3884;48.616;12.872;2023-06-01T10:14:15;9.03;;;4.63;;
7683;SDS011;3884;48.616;12.872;2023-06-01T10:16:42;6.27;;;5.17;;
7683;SDS011;3884;48.616;12.872;2023-06-01T10:19:10;5.83;;;4.97;;
7683;SDS011;3884;48.616;12.872;2023-06-01T10:21:38;6.23;;;5.00;;
7683;SDS011;3884;48.616;12.872;2023-06-01T10:24:07;7.07;;;5.30;;
7683;SDS011;3884;48.616;12.872;2023-06-01T10:26:38;5.17;;;4.37;;
7683;SDS011;3884;48.616;12.872;2023-06-01T10:29:10;7.07;;;5.00;;
7683;SDS011;3884;48.616;12.872;2023-06-01T10:31:39;10.57;;;4.80;;
7683;SDS011;3884;48.616;12.872;2023-06-01T10:34:07;8.97;;;4.43;;
7683;SDS011;3884;48.616;12.872;2023-06-01T10:39:41;5.87;;;4.47;;
7683;SDS011;3884;48.616;12.872;2023-06-01T10:45:06;5.43;;;4.40;;
7683;SDS011;3884;48.616;12.872;2023-06-01T10:47:46;8.10;;;4.23;;
7683;SDS011;3884;48.616;12.872;2023-06-01T10:50:16;5.20;;;4.70;;
7683;SDS011;3884;48.616;12.872;2023-06-01T10:52:44;6.10;;;4.60;;
7683;SDS011;3884;48.616;12.872;2023-06-01T10:55:22;5.03;;;4.20;;
7683;SDS011;3884;48.616;12.872;2023-06-01T10:57:52;5.47;;;4.70;;
7683;SDS011;3884;48.616;12.872;2023-06-01T11:00:45;7.57;;;4.87;;
7683;SDS011;3884;48.616;12.872;2023-06-01T11:03:13;7.03;;;4.83;;
7683;SDS011;3884;48.616;12.872;2023-06-01T11:05:41;6.70;;;4.83;;
7683;SDS011;3884;48.616;12.872;2023-06-01T11:11:16;7.43;;;5.20;;
7683;SDS011;3884;48.616;12.872;2023-06-01T11:13:47;4.97;;;4.40;;
7683;SDS011;3884;48.616;12.872;2023-06-01T11:16:38;5.87;;;4.33;;
7683;SDS011;3884;48.616;12.872;2023-06-01T11:19:06;6.77;;;5.13;;
7683;SDS011;3884;48.616;12.872;2023-06-01T11:21:39;7.67;;;5.23;;
7683;SDS011;3884;48.616;12.872;2023-06-01T11:24:12;4.93;;;4.40;;
7683;SDS011;3884;48.616;12.872;2023-06-01T11:26:43;6.87;;;5.20;;
7683;SDS011;3884;48.616;12.872;2023-06-01T11:29:16;9.93;;;5.30;;
7683;SDS011;3884;48.616;12.872;2023-06-01T11:31:45;6.43;;;4.87;;
7683;SDS011;3884;48.616;12.872;2023-06-01T11:34:13;5.90;;;4.73;;
7683;SDS011;3884;48.616;12.872;2023-06-01T11:36:44;6.07;;;4.37;;
7683;SDS011;3884;48.616;12.872;2023-06-01T11:39:16;8.13;;;4.80;;
7683;SDS011;3884;48.616;12.872;2023-06-01T11:41:51;5.93;;;4.77;;
7683;SDS011;3884;48.616;12.872;2023-06-01T11:44:30;6.93;;;4.40;;
7683;SDS011;3884;48.616;12.872;2023-06-01T11:46:57;5.23;;;4.53;;
7683;SDS011;3884;48.616;12.872;2023-06-01T11:49:26;7.43;;;4.83;;
7683;SDS011;3884;48.616;12.872;2023-06-01T11:51:53;7.03;;;4.50;;
7683;SDS011;3884;48.616;12.872;2023-06-01T11:54:25;4.87;;;4.33;;
7683;SDS011;3884;48.616;12.872;2023-06-01T11:56:53;7.07;;;4.77;;
7683;SDS011;3884;48.616;12.872;2023-06-01T11:59:21;6.70;;;4.80;;
7683;SDS011;3884;48.616;12.872;2023-06-01T12:01:50;7.47;;;4.57;;
7683;SDS011;3884;48.616;12.872;2023-06-01T12:04:19;4.80;;;4.30;;
7683;SDS011;3884;48.616;12.872;2023-06-01T12:06:49;4.97;;;4.47;;
7683;SDS011;3884;48.616;12.872;2023-06-01T12:09:16;6.90;;;4.10;;
7683;SDS011;3884;48.616;12.872;2023-06-01T12:11:43;8.83;;;5.13;;
7683;SDS011;3884;48.616;12.872;2023-06-01T12:14:10;6.33;;;4.53;;
7683;SDS011;3884;48.616;12.872;2023-06-01T12:16:54;6.97;;;4.77;;
7683;SDS011;3884;48.616;12.872;2023-06-01T12:19:23;5.97;;;4.30;;
7683;SDS011;3884;48.616;12.872;2023-06-01T12:21:52;7.17;;;4.40;;
7683;SDS011;3884;48.616;12.872;2023-06-01T12:24:25;6.23;;;4.47;;
7683;SDS011;3884;48.616;12.872;2023-06-01T12:26:54;5.60;;;4.60;;
7683;SDS011;3884;48.616;12.872;2023-06-01T12:29:33;6.13;;;4.50;;
7683;SDS011;3884;48.616;12.872;2023-06-01T12:32:05;5.27;;;4.77;;
7683;SDS011;3884;48.616;12.872;2023-06-01T12:34:34;6.30;;;4.83;;
7683;SDS011;3884;48.616;12.872;2023-06-01T12:37:11;7.60;;;5.00;;
7683;SDS011;3884;48.616;12.872;2023-06-01T12:39:41;5.10;;;4.37;;
7683;SDS011;3884;48.616;12.872;2023-06-01T12:42:08;5.10;;;4.27;;
7683;SDS011;3884;48.616;12.872;2023-06-01T12:44:36;9.20;;;4.93;;
7683;SDS011;3884;48.616;12.872;2023-06-01T12:47:06;5.20;;;4.27;;
7683;SDS011;3884;48.616;12.872;2023-06-01T12:49:33;5.70;;;4.37;;
7683;SDS011;3884;48.616;12.872;2023-06-01T12:52:04;5.50;;;4.63;;
7683;SDS011;3884;48.616;12.872;2023-06-01T12:54:36;6.50;;;4.63;;
7683;SDS011;3884;48.616;12.872;2023-06-01T12:57:12;6.37;;;4.90;;
7683;SDS011;3884;48.616;12.872;2023-06-01T13:02:22;5.23;;;4.50;;
7683;SDS011;3884;48.616;12.872;2023-06-01T13:04:51;6.87;;;4.77;;
7683;SDS011;3884;48.616;12.872;2023-06-01T13:11:00;9.03;;;4.47;;
7683;SDS011;3884;48.616;12.872;2023-06-01T13:14:14;6.10;;;4.50;;
7683;SDS011;3884;48.616;12.872;2023-06-01T13:16:41;7.23;;;4.90;;
7683;SDS011;3884;48.616;12.872;2023-06-01T13:19:11;6.00;;;4.40;;
7683;SDS011;3884;48.616;12.872;2023-06-01T13:21:38;6.47;;;4.93;;
7683;SDS011;3884;48.616;12.872;2023-06-01T13:24:06;5.53;;;4.87;;
7683;SDS011;3884;48.616;12.872;2023-06-01T13:26:33;7.30;;;4.90;;
7683;SDS011;3884;48.616;12.872;2023-06-01T13:29:00;5.20;;;4.40;;
7683;SDS011;3884;48.616;12.872;2023-06-01T13:31:27;6.20;;;4.83;;
7683;SDS011;3884;48.616;12.872;2023-06-01T13:33:55;5.13;;;4.63;;
7683;SDS011;3884;48.616;12.872;2023-06-01T13:36:29;5.63;;;4.70;;
7683;SDS011;3884;48.616;12.872;2023-06-01T13:38:58;5.37;;;4.17;;
7683;SDS011;3884;48.616;12.872;2023-06-01T13:41:26;5.97;;;4.80;;
7683;SDS011;3884;48.616;12.872;2023-06-01T13:43:53;4.63;;;4.13;;
7683;SDS011;3884;48.616;12.872;2023-06-01T13:46:20;6.87;;;4.47;;
7683;SDS011;3884;48.616;12.872;2023-06-01T13:48:47;6.87;;;4.70;;
7683;SDS011;3884;48.616;12.872;2023-06-01T13:51:13;5.27;;;4.30;;
7683;SDS011;3884;48.616;12.872;2023-06-01T13:53:42;4.70;;;4.23;;
7683;SDS011;3884;48.616;12.872;2023-06-01T13:56:11;7.03;;;4.40;;
7683;SDS011;3884;48.616;12.872;2023-06-01T13:58:39;4.90;;;4.40;;
7683;SDS011;3884;48.616;12.872;2023-06-01T14:04:33;5.73;;;4.10;;
7683;SDS011;3884;48.616;12.872;2023-06-01T14:07:00;5.97;;;4.30;;
7683;SDS011;3884;48.616;12.872;2023-06-01T14:09:29;6.40;;;4.30;;
7683;SDS011;3884;48.616;12.872;2023-06-01T14:12:00;5.33;;;4.33;;
7683;SDS011;3884;48.616;12.872;2023-06-01T14:14:27;4.50;;;4.10;;
7683;SDS011;3884;48.616;12.872;2023-06-01T14:16:55;6.90;;;4.43;;
7683;SDS011;3884;48.616;12.872;2023-06-01T14:19:22;7.23;;;4.57;;
7683;SDS011;3884;48.616;12.872;2023-06-01T14:21:52;6.47;;;4.77;;
7683;SDS011;3884;48.616;12.872;2023-06-01T14:24:18;4.90;;;4.40;;
7683;SDS011;3884;48.616;12.872;2023-06-01T14:26:47;7.20;;;4.70;;
7683;SDS011;3884;48.616;12.872;2023-06-01T14:29:14;5.90;;;4.63;;
7683;SDS011;3884;48.616;12.872;2023-06-01T14:31:41;6.10;;;4.63;;
7683;SDS011;3884;48.616;12.872;2023-06-01T14:34:08;5.57;;;3.80;;
7683;SDS011;3884;48.616;12.872;2023-06-01T14:36:35;5.03;;;4.43;;
7683;SDS011;3884;48.616;12.872;2023-06-01T14:39:02;7.10;;;4.57;;
7683;SDS011;3884;48.616;12.872;2023-06-01T14:41:30;5.57;;;4.47;;
7683;SDS011;3884;48.616;12.872;2023-06-01T14:43:58;7.00;;;4.30;;
7683;SDS011;3884;48.616;12.872;2023-06-01T14:46:25;6.40;;;4.80;;
7683;SDS011;3884;48.616;12.872;2023-06-01T14:48:52;6.77;;;5.20;;
7683;SDS011;3884;48.616;12.872;2023-06-01T14:51:18;4.97;;;4.40;;
7683;SDS011;3884;48.616;12.872;2023-06-01T14:53:45;7.07;;;4.73;;
7683;SDS011;3884;48.616;12.872;2023-06-01T14:56:15;6.33;;;4.67;;
7683;SDS011;3884;48.616;12.872;2023-06-01T14:58:43;8.37;;;4.90;;
7683;SDS011;3884;48.616;12.872;2023-06-01T15:01:11;5.40;;;4.83;;
7683;SDS011;3884;48.616;12.872;2023-06-01T15:03:38;6.50;;;4.67;;
7683;SDS011;3884;48.616;12.872;2023-06-01T15:06:05;5.67;;;4.37;;
7683;SDS011;3884;48.616;12.872;2023-06-01T15:08:33;5.40;;;4.60;;
7683;SDS011;3884;48.616;12.872;2023-06-01T15:11:00;5.17;;;4.10;;
7683;SDS011;3884;48.616;12.872;2023-06-01T15:13:27;8.00;;;4.43;;
7683;SDS011;3884;48.616;12.872;2023-06-01T15:15:53;4.90;;;4.13;;
7683;SDS011;3884;48.616;12.872;2023-06-01T15:18:22;7.53;;;4.00;;
7683;SDS011;3884;48.616;12.872;2023-06-01T15:20:48;5.40;;;4.20;;
7683;SDS011;3884;48.616;12.872;2023-06-01T15:23:16;5.07;;;4.40;;
7683;SDS011;3884;48.616;12.872;2023-06-01T15:25:43;6.63;;;4.10;;
7683;SDS011;3884;48.616;12.872;2023-06-01T15:28:10;4.43;;;4.03;;
7683;SDS011;3884;48.616;12.872;2023-06-01T15:30:37;5.07;;;4.23;;
7683;SDS011;3884;48.616;12.872;2023-06-01T15:33:04;6.47;;;4.17;;
7683;SDS011;3884;48.616;12.872;2023-06-01T15:35:32;7.30;;;4.60;;